Main page
METAR-TAF:

METAR-TAF

Airports :

St. Gallen, Switzerland

St. Gallen–Altenrhein Airport

latitude: 47-29-06N, longitude: 009-33-43E, elevation: 398 m

Current weather observation

The report was made 20 minutes ago, at 23:20 UTC
Wind 1 kt from variable directions
Temperature 18°C
Humidity 94%
Pressure 1020 hPa
Visibility 10 km or more
no clouds below 1500 m and no cumulonimbus

METAR: LSZR 162320Z AUTO VRB01KT CAVOK 18/17 Q1020

Time: 01:40 (23:40 UTC)

Forecast

The report was made 9 hours and 15 minutes ago, at 14:25 UTC
Forecast valid from 16 at 15 UTC to 16 at 24 UTC
Wind 3 kt from variable directions
Visibility 10 km or more
Few clouds at a height of 5000 ft

TAF: LSZR 161425Z 1615/1624 VRB03KT 9999 FEW050

Weather observations and forecasts of more than 4000 airports (METAR and TAF reports).

The available stations are represented by yellow and red dots on the map.

Hover mouse over dot to see the name of the station.

Then click to see weather observations and forecasts.

To change the map : click on the green buttons with a black cross to zoom in, on the green button with a dash to zoom out, or on the green arrows for adjacent maps.


METAR-TAF: